AirNav   Air Wisconsin pilot careers
 
 1482 users online  

KCJJ Ellen Church Field Airport
Cresco, Iowa, USA

GOING TO CRESCO?


FAA INFORMATION EFFECTIVE 01 FEBRUARY 2018

Location

FAA Identifier: CJJ
Lat/Long: 43-21-55.0850N / 092-07-59.0990W
43-21.918083N / 092-07.984983W
43.3653014 / -92.1330831
(estimated)
Elevation: 1279 ft. / 389.8 m (surveyed)
Variation: 02E (1985)
From city: 1 mile SW of CRESCO, IA
Time zone: UTC -6 (UTC -5 during Daylight Saving Time)
Zip code: 52136

Airport Operations

Airport use: Open to the public
Activation date: 06/1963
Control tower: no
ARTCC: MINNEAPOLIS CENTER
FSS: FORT DODGE FLIGHT SERVICE STATION
NOTAMs facility: FOD (NOTAM-D service available)
Attendance: UNATNDD
Wind indicator: lighted
Segmented circle: no
Lights: DUSK-DAWN. ACTVT LIRL RY 15/33; VASI RYS 15 & 33 - 122.7.

Airport Communications

CTAF/UNICOM: 122.8
WX AWOS-3 at DEH (18 nm E): 120.925 (563-382-2990)
WX AWOS-3 at FKA (19 nm N): 118.550 (507-765-2182)
  • ANSWERED BY POLICE; NOT ON FIELD.
  • APCH/DEP SVC PRVDD BY MINNAEPOLIS ARTCC ON FREQ 118.85 (LA CROSSE RCAG).

Nearby radio navigation aids

VOR radial/distance  VOR name  Freq  Var
UKNr276/26.5WAUKON VORTAC116.6005E
RSTr136/32.2ROCHESTER VOR/DME112.0005E
JAYr107/36.5AUSTIN VOR/DME108.2003E

Airport Services

Oil available: CTAF/UNICOM FREQ 122.8 OTS INDEFLY.
Parking: tiedowns
Airframe service: NONE
Powerplant service: NONE
Bottled oxygen: NONE
Bulk oxygen: NONE

Runway Information

Runway 15/33

Dimensions: 2949 x 50 ft. / 899 x 15 m
Surface: concrete, in good condition
Weight bearing capacity: 
Single wheel: 29.0
Runway edge lights: low intensity
RUNWAY 15  RUNWAY 33
Latitude: 43-22.136017N43-21.699233N
Longitude: 092-08.129617W092-07.839467W
Elevation: 1279.0 ft.1265.0 ft.
Gradient: 0.5%0.5%
Traffic pattern: leftleft
Runway heading: 152 magnetic, 154 true332 magnetic, 334 true
Markings: nonprecision, in good conditionnonprecision, in good condition
Visual slope indicator: 2-box VASI on left (3.00 degrees glide path)2-box VASI on left (3.00 degrees glide path)
Touchdown point: yes, no lightsyes, no lights
Obstructions: 56 ft. trees, 1350 ft. from runway, 11 ft. left of centerline, 20:1 slope to clear25 ft. pole, 714 ft. from runway, 228 ft. left of centerline, 20:1 slope to clear

Airport Ownership and Management from official FAA records

Ownership: Publicly-owned
Owner: CITY OF CRESCO
130 NORTH PARK PLACE
CRESCO, IA 52136
Phone 319-547-3101
Manager: CLAIR PECINOVSKY
12848 WELL ROAD
CRESCO, IA 52136
Phone 563-547-4898

Airport Operational Statistics

Aircraft based on the field: 8
Single engine airplanes: 7
Ultralights: 1
    
Aircraft operations: avg 29/week *
75% local general aviation
25% transient general aviation
* for 12-month period ending 28 May 2015

Additional Remarks

BE ALERT FOR ULTRALIGHT ACTIVITY ON & INVOF ARPT.

Instrument Procedures

NOTE: All procedures below are presented as PDF files. If you need a reader for these files, you should download the free Adobe Reader.

NOT FOR NAVIGATION. Please procure official charts for flight.
FAA instrument procedures published for use between 1 February 2018 at 0901Z and 1 March 2018 at 0900Z.

 
IAPs - Instrument Approach Procedures
GPS RWY 15   download (127KB)
GPS RWY 33   download (123KB)
NOTE: Special Take-Off Minimums/Departure Procedures apply   download (158KB)

Other nearby airports with instrument procedures:

KDEH - Decorah Municipal Airport (18 nm E)
KFKA - Fillmore County Airport (19 nm N)
3Y2 - George L Scott Municipal Airport (27 nm SE)
KCCY - Northeast Iowa Regional Airport (27 nm SW)
55Y - Rushford Municipal-Robert W Bunke Field Airport (30 nm NE)
 
Loc | Ops | Rwys | IFR | FBO | Links
Com | Nav | Svcs | Stats | Notes

AirNav Hotels Sweepstakes
 
Area around KCJJ (Ellen Church Field Airport)
 
Road maps at: MapQuest Bing Google
 
Aerial photo
WARNING: Photo may not be current or correct
Aerial photo of KCJJ (Ellen Church Field Airport)
Photo taken 27-Aug-2006

Do you have a better or more recent aerial photo of Ellen Church Field Airport that you would like to share? If so, please send us your photo.

 
Sectional chart

 
Airport distance calculator
Flying to Ellen Church Field Airport? Find the distance to fly.

From to KCJJ

Sunrise and sunset
Times for 19-Feb-2018
 Local
(UTC-6)
 Zulu
(UTC)
Morning civil twilight06:3312:33
Sunrise07:0213:02
Sunset17:4323:43
Evening civil twilight18:1200:12

Current date and time
Zulu (UTC)  19-Feb-2018 20:55:46
Local (UTC-6)  19-Feb-2018 14:55:46
 
METAR
KDEH 
19nm E 
192035Z AUTO 07009KT 1 1/4SM BR OVC004 03/02 A2967 RMK AO2
KFKA 
19nm N 
192035Z AUTO 02007KT 1 3/4SM BR OVC004 00/M01 A2972 RMK AO2 T10051013
KCCY 
28nm SW 
192035Z AUTO 05009KT 2SM BR OVC004 01/01 A2968 RMK AO2
KRST 
36nm NW 
191959Z 03015G26KT 3SM -FZRA BR OVC004 M02/M03 A2971 RMK AO2 P0000 I1000 T10221028
TAF
KRST 
36nm NW 
191723Z 1918/2018 03013G22KT 2SM -FZRA OVC004 FM200000 03012KT P6SM OVC006 FM200900 03008KT 2SM -FZRAPL OVC005 FM201300 33010KT P6SM OVC005
NOTAMs
Click for the latest NOTAMs
NOTAMs are issued by the DoD/FAA and will open in a separate window not controlled by AirNav.

 

 
 

Would you like to see your business listed on this page?

 If your business provides an interesting product or service to pilots, flight crews, aircraft, or users of the Ellen Church Field Airport, you should consider listing it here.  To start the listing process, click on the button below
 
Add a business
 

Other Pages about Ellen Church Field Airport

Page from the Iowa Airport Directory
 
Update a link
 
Copyright © AirNav, LLC. All rights reserved. Privacy Policy  Contact